KHYA

Barnstable Municipal-Boardman / Polando Field Airport

Hyannis, Massachusetts, USA
METAR KHYA 230056Z 20006KT 10SM -RA BKN055 BKN090 OVC110 14/12 A3001 RMK AO2 SLP161 P0001 T01390117
Observed Flight Rules
May-23 @ 00:56 UTC (26 minutes ago) Visual Flight Rules
Wind Visibility Clouds Conditions
200° at 6 knots 10 miles
  • Broken at 5,500' AGL
  • Broken at 9,000' AGL
  • Overcast at 11,000' AGL
  • Light Rain
Temperatures Readings Precipitation
Current 14°C / 57°F
Dewpoint 12°C / 54°F
Humidity 88%
Altimeter 30.01" Hg
Pressure 1016.1 hPa
Elevation 22
Current Rain 0.01
METAR KHYA 230056Z 20006KT 10SM -RA BKN055 BKN090 OVC110 14/12 A3001 RMK AO2 SLP161 P0001 T01390117
Observed Flight Rules
May-23 @ 00:56 UTC
(26 minutes ago)
VFR
Wind Visibility
200° at 6 knots 10 miles
Clouds
  • Broken at 5,500' AGL
  • Broken at 9,000' AGL
  • Overcast at 11,000' AGL
Conditions
  • Light Rain
Temperature Dewpoint
14°C / 57°F 12°C / 54°F
Humidity Altimeter Pressure
88% 30.01" Hg 1016.1 hPa
Current Rain
0.01